East Otto, New York
Current Conditions -  °F | °C
As of 10:15 PM on Friday 21 Nov 2014 (Local Time) from KOLE Reporting Station
Clear Clear  
Wind Chill:   Ceiling: Unl
Heat Index: 16°   Visibility: 10mi
Dew Point: 12°   Wind: 6mph
Humidity: 86%   Direction: 210°SSW
Pressure: 30.33"   Gusts: NA
Location:  42.39°N, 78.75°W
Report Text: KOLE 220315Z AUTO 21005KT 10SM CLR M09/M11 A3033 RMK AO2
Loading
Personal Weather Stations






























Interactive Weather Map New forecast layout! Learn more

10-Day Weather Forecast

Advertisements
Track Severe Weather on mobile